CDT,Max TemperatureF,Mean TemperatureF,Min TemperatureF,Max Dew PointF,MeanDew PointF,Min DewpointF,Max Humidity, Mean Humidity, Min Humidity, Max Sea Level PressureIn, Mean Sea Level PressureIn, Min Sea Level PressureIn, Max VisibilityMiles, Mean VisibilityMiles, Min VisibilityMiles, Max Wind SpeedMPH, Mean Wind SpeedMPH, Max Gust SpeedMPH,PrecipitationIn, CloudCover, Events, WindDirDegrees
2012-9-1,93,87,81,78,76,71,84,69,53,30.08,30.01,29.97,10,10,5,24,12,36,0.02,2,Rain-Thunderstorm,162
2012-9-2,94,88,82,78,75,69,82,66,44,30.05,29.99,29.93,10,10,10,22,12,28,0.00,1,,163
2012-9-3,95,88,82,77,75,72,78,67,49,30.01,29.95,29.89,10,10,10,20,12,28,0.00,2,,164
2012-9-4,94,88,81,76,74,71,81,66,46,29.97,29.92,29.86,10,10,10,22,12,25,0.00,0,,167
2012-9-5,95,88,82,77,75,69,81,67,42,29.92,29.87,29.82,10,10,10,20,12,25,0.00,1,,168
2012-9-6,94,86,79,77,75,71,87,68,48,29.95,29.90,29.86,10,10,10,18,10,25,0.00,1,,166
2012-9-7,94,87,80,78,75,70,85,69,45,29.92,29.87,29.80,10,10,10,17,9,23,0.00,1,,173
2012-9-8,97,89,81,78,74,63,84,66,37,29.99,29.90,29.84,10,10,10,17,8,30,0.00,2,Rain-Thunderstorm,196
2012-9-9,90,82,73,67,62,53,77,54,28,30.10,30.03,29.99,10,10,10,16,10,22,0.00,0,,54
2012-9-10,91,79,67,67,62,56,80,58,30,30.09,30.03,29.98,10,10,10,17,6,24,0.00,0,,69
2012-9-11,91,80,69,76,69,63,87,67,46,30.05,30.00,29.96,10,10,10,20,7,28,0.00,2,,80
2012-9-12,94,86,78,78,76,73,90,72,51,30.02,29.97,29.92,10,10,10,22,7,29,0.00,2,,158
2012-9-13,95,87,79,78,73,63,86,67,37,30.08,30.01,29.94,10,10,10,22,10,30,0.00,1,Thunderstorm,138
2012-9-14,84,78,73,76,73,69,90,80,68,30.14,30.09,30.03,10,10,2,15,8,21,0.36,3,Rain-Thunderstorm,33
2012-9-15,85,78,72,72,70,68,89,78,62,30.14,30.09,30.03,10,10,10,15,9,18,0.00,5,Thunderstorm,19
2012-9-16,83,77,71,74,71,69,93,86,66,30.05,29.98,29.92,10,9,1,12,5,,0.60,5,Rain-Thunderstorm,12
2012-9-17,87,79,71,71,69,65,93,77,47,29.93,29.85,29.78,10,9,5,13,5,,0.00,4,,6
2012-9-18,91,81,71,73,69,60,93,71,36,30.01,29.94,29.87,10,9,3,14,5,21,0.00,0,,36
2012-9-19,89,79,69,72,69,66,91,71,48,30.08,30.03,29.99,10,10,10,12,5,20,0.00,1,,57
2012-9-20,89,78,68,70,63,50,91,62,28,30.06,30.02,29.97,10,10,10,14,5,17,0.00,0,,97
2012-9-21,88,76,65,69,61,52,90,63,28,30.00,29.97,29.92,10,10,7,14,4,21,0.00,0,,60
2012-9-22,91,80,69,75,70,65,92,72,47,30.07,30.02,29.96,10,10,7,15,5,21,0.00,1,,78
2012-9-23,91,82,73,78,73,69,94,74,48,30.14,30.10,30.07,10,10,7,15,6,21,0.00,1,,87
2012-9-24,91,82,72,74,71,69,90,70,48,30.14,30.08,30.01,10,10,10,15,6,25,0.00,2,,127
2012-9-25,91,85,79,73,71,69,76,64,48,30.04,29.99,29.93,10,10,10,18,12,25,0.00,2,,151
2012-9-26,91,84,77,74,71,68,76,64,49,30.00,29.96,29.93,10,10,10,18,12,23,0.00,1,,136
2012-9-27,91,84,77,78,74,72,86,73,54,30.04,29.98,29.94,10,10,5,22,9,29,0.07,2,Rain,128
2012-9-28,89,83,77,77,75,71,89,77,57,29.99,29.94,29.88,10,10,10,16,6,22,0.00,2,Rain,134
2012-9-29,88,82,75,79,76,72,93,86,70,29.89,29.80,29.68,10,8,0,24,9,31,1.94,6,Rain-Thunderstorm,152
2012-9-30,84,78,71,71,67,64,85,71,50,29.85,29.78,29.73,10,10,10,,,,0.00,5,,-1